Clough Corners, New York
Current Conditions -  °F | °C
As of 6:53 AM on Monday 26 Jan 2015 (Local Time) from KBGM Reporting Station
Light Snow Light Snow  
Wind Chill: -6°   Ceiling: 4400
Heat Index:   Visibility: 2.5mi
Dew Point:   Wind: 7mph
Humidity: 80%   Direction: 70°ENE
Pressure: 29.86"   Gusts: NA
Location:  42.3636°N, 75.9252°W
Report Text: KBGM 261153Z 07006KT 2 1/2SM -SN OVC044 M14/M17 A2986 RMK AO2 SFC VIS 3 SNB15 SLP147 P0000 60000 T11441172 11139 21144 55009
Loading
Personal Weather Stations






























Interactive Weather Map New forecast layout! Learn more

10-Day Weather Forecast

Advertisements
Track Severe Weather on mobile